Terminal Aerodrome Forecast
Issued by NWS Des Moines, IA

Home | Current Version | Previous Version | Text Only | Print | Product List | Glossary On
Versions: 1 2 3 4 5 6 7 8 9 10 11 12 13 14
000
FTUS43 KDMX 281127
TAFDSM
TAF
KDSM 281127Z 2812/2912 36009KT P6SM FEW040 SCT150
     FM281600 33008KT P6SM BKN015
     FM282300 35008KT P6SM SCT020 BKN100
     FM290800 35005KT P6SM BKN015=

USA.gov is the U.S. government's official web portal to all federal, state and local government web resources and services.